createdAt,value
2023-01-25T00:00:51.916Z,1.80
2023-01-25T00:03:18.849Z,1.50
2023-01-25T00:05:45.813Z,1.50
2023-01-25T00:08:12.592Z,1.70
2023-01-25T00:10:39.370Z,1.80
2023-01-25T00:13:06.202Z,1.80
2023-01-25T00:15:41.710Z,1.70
2023-01-25T00:18:11.209Z,1.60
2023-01-25T00:20:40.750Z,1.70
2023-01-25T00:23:09.667Z,1.50
2023-01-25T00:25:36.476Z,1.60
2023-01-25T00:28:03.392Z,1.60
2023-01-25T00:30:30.164Z,1.50
2023-01-25T00:33:27.137Z,1.50
2023-01-25T00:35:59.068Z,1.50
2023-01-25T00:38:30.593Z,1.60
2023-01-25T00:41:01.598Z,1.60
2023-01-25T00:43:28.355Z,1.70
2023-01-25T00:46:01.187Z,1.70
2023-01-25T00:48:28.065Z,1.70
2023-01-25T00:50:54.819Z,1.70
2023-01-25T00:53:23.727Z,1.60
2023-01-25T00:55:54.157Z,1.70
2023-01-25T00:58:23.056Z,1.70
2023-01-25T01:00:49.886Z,1.80
2023-01-25T01:03:16.662Z,1.90
2023-01-25T01:05:43.452Z,1.90
2023-01-25T01:08:10.618Z,1.90
2023-01-25T01:10:37.437Z,1.80
2023-01-25T01:13:04.233Z,1.80
2023-01-25T01:15:31.118Z,1.70
2023-01-25T01:17:57.895Z,1.80
2023-01-25T01:20:24.677Z,1.90
2023-01-25T01:22:55.218Z,1.90
2023-01-25T01:25:22.083Z,1.90
2023-01-25T01:27:48.922Z,2.00
2023-01-25T01:30:18.476Z,2.00
2023-01-25T01:32:45.405Z,2.00
2023-01-25T01:35:12.248Z,2.10
2023-01-25T01:40:24.977Z,1.90
2023-01-25T01:43:00.318Z,1.90
2023-01-25T01:45:49.939Z,1.90
2023-01-25T01:48:37.774Z,1.90
2023-01-25T01:51:43.699Z,1.90
2023-01-25T01:54:12.598Z,1.90
2023-01-25T01:56:46.288Z,1.80
2023-01-25T01:59:13.727Z,1.80
2023-01-25T02:01:43.787Z,1.90
2023-01-25T02:04:14.851Z,1.80
2023-01-25T02:06:49.746Z,1.90
2023-01-25T02:09:22.618Z,1.90
2023-01-25T02:11:51.132Z,1.80
2023-01-25T02:14:18.817Z,1.90
2023-01-25T02:16:45.843Z,1.90
2023-01-25T02:19:40.292Z,1.80
2023-01-25T02:22:14.389Z,1.80
2023-01-25T02:24:47.312Z,1.90
2023-01-25T02:27:14.125Z,1.80
2023-01-25T02:29:41.359Z,1.60
2023-01-25T02:32:08.191Z,1.40
2023-01-25T02:34:36.283Z,1.50
2023-01-25T02:37:05.768Z,1.60
2023-01-25T02:39:34.566Z,1.60
2023-01-25T02:42:01.364Z,1.50
2023-01-25T02:44:34.214Z,1.50
2023-01-25T02:47:01.323Z,1.50
2023-01-25T02:49:28.166Z,1.40
2023-01-25T02:51:57.490Z,1.40
2023-01-25T02:54:26.841Z,1.50
2023-01-25T02:56:53.831Z,1.50
2023-01-25T02:59:22.098Z,1.40
2023-01-25T03:01:49.897Z,1.40
2023-01-25T03:04:19.793Z,1.50
2023-01-25T03:06:46.728Z,1.60
2023-01-25T03:09:13.513Z,1.50
2023-01-25T03:11:41.813Z,1.60
2023-01-25T03:14:08.616Z,1.70
2023-01-25T03:16:35.391Z,1.70
2023-01-25T03:19:02.319Z,1.60
2023-01-25T03:21:29.115Z,1.60
2023-01-25T03:24:01.390Z,1.60
2023-01-25T03:26:29.209Z,1.70
2023-01-25T03:28:56.148Z,1.70
2023-01-25T03:31:24.638Z,1.70
2023-01-25T03:33:51.614Z,1.80
2023-01-25T03:36:18.612Z,1.70
2023-01-25T03:38:45.484Z,1.70
2023-01-25T03:41:15.133Z,1.70
2023-01-25T03:43:42.137Z,1.70
2023-01-25T03:46:08.956Z,1.70
2023-01-25T03:48:37.552Z,1.80
2023-01-25T03:51:04.386Z,1.80
2023-01-25T03:53:32.906Z,1.70
2023-01-25T03:56:06.881Z,1.70
2023-01-25T03:58:36.339Z,1.80
2023-01-25T04:01:04.806Z,1.70
2023-01-25T04:03:31.620Z,1.70
2023-01-25T04:05:59.265Z,1.70
2023-01-25T04:08:26.851Z,1.60
2023-01-25T04:10:54.511Z,1.60
2023-01-25T04:13:23.054Z,1.60
2023-01-25T04:15:52.518Z,1.60
2023-01-25T04:18:19.707Z,1.60
2023-01-25T04:20:47.080Z,1.60
2023-01-25T04:23:13.849Z,1.60
2023-01-25T04:25:40.790Z,1.60
2023-01-25T04:28:07.545Z,1.70
2023-01-25T04:30:34.337Z,1.60
2023-01-25T04:33:05.589Z,1.40
2023-01-25T04:35:32.593Z,1.40
2023-01-25T04:38:00.140Z,1.40
2023-01-25T04:40:27.306Z,1.40
2023-01-25T04:42:54.370Z,1.40
2023-01-25T04:45:21.682Z,1.40
2023-01-25T04:47:49.137Z,1.50
2023-01-25T04:50:18.387Z,1.60
2023-01-25T04:52:45.165Z,1.60
2023-01-25T04:55:12.284Z,1.60
2023-01-25T04:57:39.343Z,1.60
2023-01-25T05:00:14.275Z,1.70
2023-01-25T05:02:43.840Z,1.70
2023-01-25T05:05:14.048Z,1.60
2023-01-25T05:07:40.941Z,1.60
2023-01-25T05:10:09.556Z,1.60
2023-01-25T05:12:36.358Z,1.70
2023-01-25T05:15:03.865Z,1.70
2023-01-25T05:17:30.713Z,1.70
2023-01-25T05:19:57.554Z,1.70
2023-01-25T05:22:24.383Z,1.70
2023-01-25T05:24:54.384Z,1.80
2023-01-25T05:27:21.867Z,1.70
2023-01-25T05:29:48.729Z,1.80
2023-01-25T05:32:23.151Z,1.70
2023-01-25T05:34:52.104Z,1.70
2023-01-25T05:37:23.525Z,1.60
2023-01-25T05:39:50.307Z,1.60
2023-01-25T05:42:18.627Z,1.50
2023-01-25T05:44:47.585Z,1.70
2023-01-25T05:47:16.597Z,1.60
2023-01-25T05:49:43.870Z,1.50
2023-01-25T05:52:17.859Z,1.60
2023-01-25T05:54:44.729Z,1.60
2023-01-25T05:57:15.809Z,1.60
2023-01-25T05:59:42.933Z,1.60
2023-01-25T06:02:11.751Z,1.60
2023-01-25T06:04:38.568Z,1.50
2023-01-25T06:07:05.350Z,1.40
2023-01-25T06:09:35.164Z,1.40
2023-01-25T06:12:03.780Z,1.40
2023-01-25T06:14:30.593Z,1.40
2023-01-25T06:16:58.421Z,1.50
2023-01-25T06:19:25.288Z,1.60
2023-01-25T06:21:59.350Z,1.60
2023-01-25T06:24:28.389Z,1.60
2023-01-25T06:26:55.237Z,1.70
2023-01-25T06:29:22.068Z,1.60
2023-01-25T06:31:48.871Z,1.60
2023-01-25T06:34:17.040Z,1.50
2023-01-25T06:36:43.982Z,1.60
2023-01-25T06:39:10.811Z,1.60
2023-01-25T06:41:37.618Z,1.40
2023-01-25T06:44:04.517Z,1.40
2023-01-25T06:46:32.778Z,1.40
2023-01-25T06:48:59.628Z,1.30
2023-01-25T06:51:26.546Z,1.30
2023-01-25T06:53:54.381Z,1.20
2023-01-25T06:56:22.765Z,1.30
2023-01-25T06:58:50.653Z,1.20
2023-01-25T07:01:20.546Z,1.20
2023-01-25T07:03:52.439Z,1.20
2023-01-25T07:06:19.770Z,1.20
2023-01-25T07:08:46.986Z,1.20
2023-01-25T07:11:16.045Z,1.20
2023-01-25T07:13:45.768Z,1.30
2023-01-25T07:16:14.950Z,1.40
2023-01-25T07:18:42.361Z,1.40
2023-01-25T07:21:20.629Z,1.50
2023-01-25T07:23:51.799Z,1.60
2023-01-25T07:26:26.311Z,1.60
2023-01-25T07:28:54.545Z,1.60
2023-01-25T07:31:24.086Z,1.50
2023-01-25T07:33:55.918Z,1.60
2023-01-25T07:36:25.422Z,1.70
2023-01-25T07:38:56.473Z,1.80
2023-01-25T07:41:24.736Z,1.80
2023-01-25T07:43:54.734Z,1.70
2023-01-25T07:46:21.937Z,1.70
2023-01-25T07:48:51.084Z,1.70
2023-01-25T07:51:22.945Z,1.70
2023-01-25T07:53:55.259Z,1.80
2023-01-25T07:56:24.620Z,1.80
2023-01-25T07:58:54.748Z,1.80
2023-01-25T08:01:23.758Z,1.70
2023-01-25T08:03:51.282Z,1.60
2023-01-25T08:06:25.653Z,1.70
2023-01-25T08:08:52.535Z,1.80
2023-01-25T08:11:25.249Z,1.80
2023-01-25T08:13:52.070Z,1.90
2023-01-25T08:16:25.094Z,1.90
2023-01-25T08:18:56.301Z,1.90
2023-01-25T08:21:25.520Z,2.00
2023-01-25T08:23:52.482Z,1.90
2023-01-25T08:26:26.820Z,1.90
2023-01-25T08:28:55.223Z,1.90
2023-01-25T08:31:30.040Z,2.00
2023-01-25T08:33:57.772Z,1.90
2023-01-25T08:36:24.911Z,1.80
2023-01-25T08:39:03.425Z,1.70
2023-01-25T08:41:32.593Z,1.70
2023-01-25T08:43:59.445Z,1.80
2023-01-25T08:46:30.334Z,1.90
2023-01-25T08:49:03.154Z,1.90
2023-01-25T08:51:33.455Z,2.00
2023-01-25T08:54:08.052Z,1.80
2023-01-25T08:56:38.331Z,1.80
2023-01-25T08:59:07.201Z,1.90
2023-01-25T09:01:35.056Z,1.80
2023-01-25T09:04:01.995Z,1.80
2023-01-25T09:06:28.822Z,1.80
2023-01-25T09:08:55.573Z,1.80
2023-01-25T09:11:23.404Z,1.90
2023-01-25T09:13:50.451Z,1.90
2023-01-25T09:16:22.748Z,2.00
2023-01-25T09:18:52.095Z,2.00
2023-01-25T09:21:19.368Z,2.00
2023-01-25T09:24:05.643Z,2.00
2023-01-25T09:26:35.137Z,2.00
2023-01-25T09:29:04.743Z,1.80
2023-01-25T09:31:31.704Z,1.80
2023-01-25T09:33:59.932Z,1.80
2023-01-25T09:36:26.868Z,1.90
2023-01-25T09:38:55.015Z,1.90
2023-01-25T09:41:23.386Z,2.00
2023-01-25T09:44:15.079Z,2.10
2023-01-25T09:46:54.369Z,2.10
2023-01-25T09:49:50.591Z,2.10
2023-01-25T09:52:50.868Z,2.00
2023-01-25T09:55:21.021Z,2.00
2023-01-25T09:57:52.264Z,2.00
2023-01-25T10:00:27.019Z,2.10
2023-01-25T10:03:35.432Z,1.90
2023-01-25T10:06:05.098Z,1.80
2023-01-25T10:08:39.430Z,2.10
2023-01-25T10:11:18.019Z,2.10
2023-01-25T10:13:47.802Z,2.30
2023-01-25T10:16:26.229Z,2.20
2023-01-25T10:19:06.667Z,2.10
2023-01-25T10:21:44.207Z,2.00
2023-01-25T10:24:20.552Z,2.00
2023-01-25T10:26:56.759Z,2.10
2023-01-25T10:29:28.415Z,2.20
2023-01-25T10:32:13.135Z,2.20
2023-01-25T10:34:55.904Z,2.30
2023-01-25T10:37:27.304Z,2.20
2023-01-25T10:39:59.257Z,2.20
2023-01-25T10:42:29.781Z,2.10
2023-01-25T10:44:56.542Z,2.20
2023-01-25T10:47:35.996Z,2.30
2023-01-25T10:50:05.430Z,2.40
2023-01-25T10:52:34.304Z,2.50
2023-01-25T10:55:26.237Z,2.50
2023-01-25T10:58:02.349Z,2.50
2023-01-25T11:00:36.690Z,2.40
2023-01-25T11:03:04.699Z,2.30
2023-01-25T11:05:37.899Z,2.20
2023-01-25T11:08:24.977Z,2.20
2023-01-25T11:10:55.656Z,2.30
2023-01-25T11:13:28.197Z,2.40
2023-01-25T11:16:01.578Z,2.50
2023-01-25T11:18:42.476Z,2.30
2023-01-25T11:21:25.369Z,2.50
2023-01-25T11:24:05.231Z,2.50
2023-01-25T11:26:34.036Z,2.60
2023-01-25T11:29:12.607Z,2.60
2023-01-25T11:31:46.061Z,2.60
2023-01-25T11:34:23.604Z,2.70
2023-01-25T11:37:28.440Z,2.80
2023-01-25T11:40:17.680Z,2.80
2023-01-25T11:43:15.263Z,2.80
2023-01-25T11:46:04.904Z,2.70
2023-01-25T11:49:01.015Z,2.70
2023-01-25T11:51:36.124Z,2.50
2023-01-25T11:54:21.379Z,2.50
2023-01-25T11:57:24.374Z,2.40
2023-01-25T11:59:54.906Z,2.40
2023-01-25T12:02:34.306Z,2.30
2023-01-25T12:05:37.520Z,2.30
2023-01-25T12:08:52.111Z,2.30
2023-01-25T12:11:21.915Z,2.40
2023-01-25T12:14:06.247Z,2.30
2023-01-25T12:16:33.575Z,2.30
2023-01-25T12:19:16.138Z,2.30
2023-01-25T12:22:01.597Z,2.30
2023-01-25T12:24:53.683Z,2.30
2023-01-25T12:27:35.215Z,2.20
2023-01-25T12:30:25.805Z,2.20
2023-01-25T12:33:15.727Z,2.20
2023-01-25T12:35:52.219Z,2.30
2023-01-25T12:38:50.870Z,2.30
2023-01-25T12:41:33.972Z,2.40
2023-01-25T12:44:35.068Z,2.30
2023-01-25T12:47:35.677Z,2.30
2023-01-25T12:50:19.429Z,2.30
2023-01-25T12:53:02.135Z,2.30
2023-01-25T12:55:33.484Z,2.40
2023-01-25T12:58:38.183Z,2.40
2023-01-25T13:01:33.708Z,2.40
2023-01-25T13:04:34.839Z,2.30
2023-01-25T13:07:14.084Z,2.20
2023-01-25T13:09:51.266Z,2.20
2023-01-25T13:12:18.258Z,2.10
2023-01-25T13:14:45.431Z,2.10
2023-01-25T13:17:43.077Z,2.20
2023-01-25T13:20:40.896Z,2.20
2023-01-25T13:23:32.972Z,2.10
2023-01-25T13:26:18.836Z,2.20
2023-01-25T13:28:49.290Z,2.10
2023-01-25T13:31:50.890Z,2.10
2023-01-25T13:34:40.997Z,2.10
2023-01-25T13:37:32.779Z,2.10
2023-01-25T13:40:10.628Z,2.10
2023-01-25T13:42:39.685Z,2.10
2023-01-25T13:45:22.117Z,2.00
2023-01-25T13:48:23.631Z,1.90
2023-01-25T13:50:54.261Z,2.00
2023-01-25T13:53:24.827Z,2.10
2023-01-25T13:56:27.372Z,2.10
2023-01-25T13:58:54.176Z,2.10
2023-01-25T14:01:47.494Z,2.10
2023-01-25T14:04:16.545Z,2.00
2023-01-25T14:06:44.990Z,1.90
2023-01-25T14:09:17.026Z,1.90
2023-01-25T14:12:06.744Z,1.90
2023-01-25T14:14:39.771Z,1.80
2023-01-25T14:17:21.251Z,1.80
2023-01-25T14:19:55.528Z,1.90
2023-01-25T14:22:31.304Z,2.00
2023-01-25T14:25:12.353Z,2.10
2023-01-25T14:27:53.728Z,2.00
2023-01-25T14:30:29.049Z,1.90
2023-01-25T14:33:01.560Z,1.90
2023-01-25T14:35:54.570Z,1.80
2023-01-25T14:38:35.293Z,1.80
2023-01-25T14:41:11.041Z,1.90
2023-01-25T14:43:41.967Z,1.90
2023-01-25T14:46:24.142Z,1.90
2023-01-25T14:48:52.929Z,1.90
2023-01-25T14:51:30.298Z,1.90
2023-01-25T14:54:02.371Z,1.80
2023-01-25T14:56:43.565Z,1.80
2023-01-25T14:59:41.799Z,1.90
2023-01-25T15:02:32.663Z,1.80
2023-01-25T15:05:15.053Z,1.90
2023-01-25T15:07:46.634Z,1.80
2023-01-25T15:10:30.138Z,1.70
2023-01-25T15:13:13.192Z,1.70
2023-01-25T15:16:01.677Z,1.70
2023-01-25T15:18:54.833Z,1.50
2023-01-25T15:21:32.890Z,1.50
2023-01-25T15:24:04.944Z,1.50
2023-01-25T15:26:33.607Z,1.60
2023-01-25T15:29:02.990Z,1.60
2023-01-25T15:31:37.008Z,1.60
2023-01-25T15:34:16.885Z,1.70
2023-01-25T15:36:45.571Z,1.70
2023-01-25T15:39:27.342Z,1.50
2023-01-25T15:41:56.122Z,1.50
2023-01-25T15:44:22.897Z,1.50
2023-01-25T15:46:51.578Z,1.50
2023-01-25T15:49:24.922Z,1.50
2023-01-25T15:51:51.742Z,1.60
2023-01-25T15:54:18.621Z,1.60
2023-01-25T15:56:54.749Z,1.50
2023-01-25T15:59:21.620Z,1.50
2023-01-25T16:01:48.439Z,1.40
2023-01-25T16:04:15.521Z,1.40
2023-01-25T16:06:51.035Z,1.40
2023-01-25T16:09:26.451Z,1.40
2023-01-25T16:11:56.037Z,1.50
2023-01-25T16:14:34.637Z,1.40
2023-01-25T16:17:08.048Z,1.40
2023-01-25T16:19:35.195Z,1.40
2023-01-25T16:22:01.929Z,1.40
2023-01-25T16:24:28.777Z,1.40
2023-01-25T16:26:58.061Z,1.40
2023-01-25T16:29:25.135Z,1.40
2023-01-25T16:31:53.385Z,1.40
2023-01-25T16:34:21.142Z,1.50
2023-01-25T16:36:50.617Z,1.40
2023-01-25T16:39:20.130Z,1.30
2023-01-25T16:41:48.099Z,1.20
2023-01-25T16:44:14.924Z,1.20
2023-01-25T16:46:42.755Z,1.20
2023-01-25T16:49:19.248Z,1.20
2023-01-25T16:51:49.169Z,1.20
2023-01-25T16:54:16.004Z,1.30
2023-01-25T16:56:45.033Z,1.20
2023-01-25T16:59:12.224Z,1.20
2023-01-25T17:01:41.423Z,1.20
2023-01-25T17:04:10.141Z,1.20
2023-01-25T17:06:44.820Z,1.20
2023-01-25T17:09:23.132Z,1.20
2023-01-25T17:11:54.796Z,1.30
2023-01-25T17:14:22.369Z,1.30
2023-01-25T17:16:51.890Z,1.30
2023-01-25T17:19:20.258Z,1.30
2023-01-25T17:21:47.613Z,1.40
2023-01-25T17:24:24.804Z,1.40
2023-01-25T17:26:56.941Z,1.50
2023-01-25T17:29:24.511Z,1.50
2023-01-25T17:31:51.921Z,1.60
2023-01-25T17:34:19.535Z,1.60
2023-01-25T17:36:48.557Z,1.60
2023-01-25T17:39:17.237Z,1.60
2023-01-25T17:41:45.083Z,1.60
2023-01-25T17:44:14.820Z,1.70
2023-01-25T17:46:41.624Z,1.50
2023-01-25T17:49:11.922Z,1.30
2023-01-25T17:51:39.093Z,1.40
2023-01-25T17:54:08.570Z,1.50
2023-01-25T17:56:37.868Z,1.60
2023-01-25T17:59:11.030Z,1.50
2023-01-25T18:01:38.405Z,1.50
2023-01-25T18:04:07.860Z,1.50
2023-01-25T18:06:35.113Z,1.50
2023-01-25T18:09:03.972Z,1.60
2023-01-25T18:11:33.786Z,1.60
2023-01-25T18:14:09.669Z,1.60
2023-01-25T18:16:44.572Z,1.60
2023-01-25T18:19:12.762Z,1.60
2023-01-25T18:21:41.973Z,1.60
2023-01-25T18:24:26.997Z,1.50
2023-01-25T18:27:24.508Z,1.50
2023-01-25T18:30:23.731Z,1.40
2023-01-25T18:32:50.474Z,1.50
2023-01-25T18:35:17.277Z,1.50
2023-01-25T18:37:46.277Z,1.50
2023-01-25T18:40:24.149Z,1.60
2023-01-25T18:42:55.940Z,1.50
2023-01-25T18:45:24.130Z,1.40
2023-01-25T18:47:51.061Z,1.40
2023-01-25T18:50:18.210Z,1.40
2023-01-25T18:52:45.107Z,1.50
2023-01-25T18:55:14.523Z,1.60
2023-01-25T18:57:43.504Z,1.60
2023-01-25T19:00:13.993Z,1.50
2023-01-25T19:02:40.928Z,1.50
2023-01-25T19:05:09.171Z,1.60
2023-01-25T19:07:36.378Z,1.50
2023-01-25T19:10:04.543Z,1.50
2023-01-25T19:12:31.415Z,1.40
2023-01-25T19:14:59.639Z,1.40
2023-01-25T19:17:26.598Z,1.50
2023-01-25T19:19:53.410Z,1.40
2023-01-25T19:22:20.227Z,1.50
2023-01-25T19:28:32.591Z,1.40
2023-01-25T19:34:34.686Z,1.60
2023-01-25T19:37:03.525Z,1.60
2023-01-25T19:39:30.501Z,1.60
2023-01-25T19:42:21.119Z,1.50
2023-01-25T19:44:48.322Z,1.40
2023-01-25T19:47:15.093Z,1.40
2023-01-25T19:49:43.298Z,1.40
2023-01-25T19:52:10.633Z,1.40
2023-01-25T19:54:37.681Z,1.50
2023-01-25T19:57:04.511Z,1.50
2023-01-25T19:59:33.271Z,1.50
2023-01-25T20:02:00.068Z,1.50
2023-01-25T20:04:27.022Z,1.50
2023-01-25T20:06:53.962Z,1.40
2023-01-25T20:09:24.956Z,1.50
2023-01-25T20:11:54.241Z,1.50
2023-01-25T20:14:21.086Z,1.50
2023-01-25T20:16:54.736Z,1.50
2023-01-25T20:19:24.072Z,1.50
2023-01-25T20:21:51.077Z,1.50
2023-01-25T20:28:18.628Z,1.40
2023-01-25T20:58:29.987Z,1.40
2023-01-25T21:39:27.174Z,1.40
2023-01-25T21:41:53.928Z,1.30
2023-01-25T21:45:17.040Z,1.40
2023-01-25T21:47:45.422Z,1.30
2023-01-25T21:50:30.767Z,1.40
2023-01-25T21:52:59.668Z,1.40
2023-01-25T21:55:26.428Z,1.40
2023-01-25T21:58:07.122Z,1.40
2023-01-25T22:00:35.928Z,1.40
2023-01-25T22:30:50.759Z,1.20
2023-01-25T22:37:12.220Z,1.30
2023-01-25T22:39:39.031Z,1.30
2023-01-25T22:42:05.852Z,1.10
2023-01-25T22:44:32.624Z,1.10
2023-01-25T22:55:33.972Z,1.10
2023-01-25T23:01:52.855Z,1.10
2023-01-25T23:43:03.120Z,1.00
2023-01-25T23:56:58.975Z,1.10
2023-01-25T23:59:25.756Z,1.00
